sensor_id;sensor_type;location;lat;lon;timestamp;P1;durP1;ratioP1;P2;durP2;ratioP2
3427;SDS011;1727;42.624;23.406;2023-08-01T00:00:53;4.73;;;4.40;;
3427;SDS011;1727;42.624;23.406;2023-08-01T00:03:21;3.30;;;3.10;;
3427;SDS011;1727;42.624;23.406;2023-08-01T00:05:48;3.33;;;3.13;;
3427;SDS011;1727;42.624;23.406;2023-08-01T00:08:15;4.40;;;4.10;;
3427;SDS011;1727;42.624;23.406;2023-08-01T00:10:41;3.80;;;3.50;;
3427;SDS011;1727;42.624;23.406;2023-08-01T00:13:10;4.20;;;3.90;;
3427;SDS011;1727;42.624;23.406;2023-08-01T00:15:37;5.67;;;4.07;;
3427;SDS011;1727;42.624;23.406;2023-08-01T00:18:04;3.63;;;3.40;;
3427;SDS011;1727;42.624;23.406;2023-08-01T00:20:31;5.40;;;4.90;;
3427;SDS011;1727;42.624;23.406;2023-08-01T00:22:58;4.03;;;3.73;;
3427;SDS011;1727;42.624;23.406;2023-08-01T00:25:24;6.93;;;3.80;;
3427;SDS011;1727;42.624;23.406;2023-08-01T00:27:51;4.00;;;3.57;;
3427;SDS011;1727;42.624;23.406;2023-08-01T00:30:19;4.83;;;4.40;;
3427;SDS011;1727;42.624;23.406;2023-08-01T00:32:47;4.30;;;3.93;;
3427;SDS011;1727;42.624;23.406;2023-08-01T00:35:14;4.80;;;4.13;;
3427;SDS011;1727;42.624;23.406;2023-08-01T00:37:41;4.57;;;4.07;;
3427;SDS011;1727;42.624;23.406;2023-08-01T00:40:08;4.70;;;4.20;;
3427;SDS011;1727;42.624;23.406;2023-08-01T00:42:35;4.27;;;3.87;;
3427;SDS011;1727;42.624;23.406;2023-08-01T00:45:03;4.17;;;3.87;;
3427;SDS011;1727;42.624;23.406;2023-08-01T00:47:32;4.40;;;4.00;;
3427;SDS011;1727;42.624;23.406;2023-08-01T00:49:59;3.97;;;3.67;;
3427;SDS011;1727;42.624;23.406;2023-08-01T00:52:26;3.70;;;3.40;;
3427;SDS011;1727;42.624;23.406;2023-08-01T00:54:53;4.57;;;4.20;;
3427;SDS011;1727;42.624;23.406;2023-08-01T00:57:21;4.47;;;4.13;;
3427;SDS011;1727;42.624;23.406;2023-08-01T00:59:47;4.90;;;3.90;;
3427;SDS011;1727;42.624;23.406;2023-08-01T01:02:14;5.40;;;4.87;;
3427;SDS011;1727;42.624;23.406;2023-08-01T01:04:42;4.87;;;3.87;;
3427;SDS011;1727;42.624;23.406;2023-08-01T01:07:09;5.03;;;4.53;;
3427;SDS011;1727;42.624;23.406;2023-08-01T01:09:38;4.27;;;3.97;;
3427;SDS011;1727;42.624;23.406;2023-08-01T01:12:05;6.30;;;3.97;;
3427;SDS011;1727;42.624;23.406;2023-08-01T01:14:32;3.90;;;3.60;;
3427;SDS011;1727;42.624;23.406;2023-08-01T01:16:59;4.20;;;3.80;;
3427;SDS011;1727;42.624;23.406;2023-08-01T01:19:26;4.33;;;3.97;;
3427;SDS011;1727;42.624;23.406;2023-08-01T01:21:54;6.87;;;4.17;;
3427;SDS011;1727;42.624;23.406;2023-08-01T01:24:22;4.00;;;3.73;;
3427;SDS011;1727;42.624;23.406;2023-08-01T01:26:49;4.23;;;3.93;;
3427;SDS011;1727;42.624;23.406;2023-08-01T01:29:18;4.60;;;4.20;;
3427;SDS011;1727;42.624;23.406;2023-08-01T01:31:46;4.50;;;4.10;;
3427;SDS011;1727;42.624;23.406;2023-08-01T01:34:14;4.37;;;3.97;;
3427;SDS011;1727;42.624;23.406;2023-08-01T01:36:41;4.50;;;4.10;;
3427;SDS011;1727;42.624;23.406;2023-08-01T01:39:09;5.40;;;4.23;;
3427;SDS011;1727;42.624;23.406;2023-08-01T01:41:36;4.47;;;4.17;;
3427;SDS011;1727;42.624;23.406;2023-08-01T01:44:03;4.43;;;3.97;;
3427;SDS011;1727;42.624;23.406;2023-08-01T01:46:30;5.10;;;4.60;;
3427;SDS011;1727;42.624;23.406;2023-08-01T01:48:57;4.50;;;4.20;;
3427;SDS011;1727;42.624;23.406;2023-08-01T01:51:25;5.17;;;4.77;;
3427;SDS011;1727;42.624;23.406;2023-08-01T01:53:52;4.47;;;4.17;;
3427;SDS011;1727;42.624;23.406;2023-08-01T01:56:20;9.00;;;4.70;;
3427;SDS011;1727;42.624;23.406;2023-08-01T01:58:47;5.00;;;4.10;;
3427;SDS011;1727;42.624;23.406;2023-08-01T02:01:14;4.20;;;3.90;;
3427;SDS011;1727;42.624;23.406;2023-08-01T02:03:41;4.50;;;4.20;;
3427;SDS011;1727;42.624;23.406;2023-08-01T02:06:08;5.07;;;3.90;;
3427;SDS011;1727;42.624;23.406;2023-08-01T02:08:34;5.03;;;3.83;;
3427;SDS011;1727;42.624;23.406;2023-08-01T02:11:03;4.93;;;4.43;;
3427;SDS011;1727;42.624;23.406;2023-08-01T02:13:32;4.50;;;4.17;;
3427;SDS011;1727;42.624;23.406;2023-08-01T02:15:59;5.13;;;4.67;;
3427;SDS011;1727;42.624;23.406;2023-08-01T02:18:26;4.10;;;3.70;;
3427;SDS011;1727;42.624;23.406;2023-08-01T02:20:52;6.50;;;4.43;;
3427;SDS011;1727;42.624;23.406;2023-08-01T02:23:19;3.83;;;3.60;;
3427;SDS011;1727;42.624;23.406;2023-08-01T02:25:46;4.70;;;4.30;;
3427;SDS011;1727;42.624;23.406;2023-08-01T02:28:13;5.30;;;4.80;;
3427;SDS011;1727;42.624;23.406;2023-08-01T02:30:41;4.70;;;4.30;;
3427;SDS011;1727;42.624;23.406;2023-08-01T02:33:08;4.90;;;4.50;;
3427;SDS011;1727;42.624;23.406;2023-08-01T02:35:35;4.97;;;4.40;;
3427;SDS011;1727;42.624;23.406;2023-08-01T02:38:02;4.47;;;4.07;;
3427;SDS011;1727;42.624;23.406;2023-08-01T02:40:29;5.30;;;4.47;;
3427;SDS011;1727;42.624;23.406;2023-08-01T02:42:56;5.10;;;4.60;;
3427;SDS011;1727;42.624;23.406;2023-08-01T02:45:24;3.90;;;3.60;;
3427;SDS011;1727;42.624;23.406;2023-08-01T02:47:52;4.80;;;4.40;;
3427;SDS011;1727;42.624;23.406;2023-08-01T02:50:19;5.00;;;4.60;;
3427;SDS011;1727;42.624;23.406;2023-08-01T02:52:46;4.57;;;4.17;;
3427;SDS011;1727;42.624;23.406;2023-08-01T02:55:13;4.10;;;3.80;;
3427;SDS011;1727;42.624;23.406;2023-08-01T02:57:40;4.80;;;4.23;;
3427;SDS011;1727;42.624;23.406;2023-08-01T03:00:07;5.00;;;4.60;;
3427;SDS011;1727;42.624;23.406;2023-08-01T03:02:36;4.70;;;4.40;;
3427;SDS011;1727;42.624;23.406;2023-08-01T03:05:06;4.60;;;4.20;;
3427;SDS011;1727;42.624;23.406;2023-08-01T03:07:33;5.10;;;4.60;;
3427;SDS011;1727;42.624;23.406;2023-08-01T03:10:00;4.37;;;3.97;;
3427;SDS011;1727;42.624;23.406;2023-08-01T03:12:27;5.23;;;4.83;;
3427;SDS011;1727;42.624;23.406;2023-08-01T03:14:54;4.47;;;4.17;;
3427;SDS011;1727;42.624;23.406;2023-08-01T03:17:20;5.47;;;4.97;;
3427;SDS011;1727;42.624;23.406;2023-08-01T03:19:47;5.40;;;4.20;;
3427;SDS011;1727;42.624;23.406;2023-08-01T03:22:16;5.20;;;4.80;;
3427;SDS011;1727;42.624;23.406;2023-08-01T03:24:43;8.00;;;4.97;;
3427;SDS011;1727;42.624;23.406;2023-08-01T03:27:10;5.60;;;4.43;;
3427;SDS011;1727;42.624;23.406;2023-08-01T03:29:37;4.80;;;4.40;;
3427;SDS011;1727;42.624;23.406;2023-08-01T03:32:04;4.37;;;3.97;;
3427;SDS011;1727;42.624;23.406;2023-08-01T03:34:31;4.57;;;4.23;;
3427;SDS011;1727;42.624;23.406;2023-08-01T03:36:58;4.70;;;4.30;;
3427;SDS011;1727;42.624;23.406;2023-08-01T03:39:26;5.00;;;4.70;;
3427;SDS011;1727;42.624;23.406;2023-08-01T03:41:53;4.87;;;4.47;;
3427;SDS011;1727;42.624;23.406;2023-08-01T03:44:20;4.50;;;4.10;;
3427;SDS011;1727;42.624;23.406;2023-08-01T03:46:47;4.47;;;3.70;;
3427;SDS011;1727;42.624;23.406;2023-08-01T03:49:13;4.77;;;4.37;;
3427;SDS011;1727;42.624;23.406;2023-08-01T03:51:40;5.10;;;4.70;;
3427;SDS011;1727;42.624;23.406;2023-08-01T03:54:07;6.73;;;6.23;;
3427;SDS011;1727;42.624;23.406;2023-08-01T03:56:35;8.07;;;6.27;;
3427;SDS011;1727;42.624;23.406;2023-08-01T03:59:04;6.40;;;5.80;;
3427;SDS011;1727;42.624;23.406;2023-08-01T04:01:31;7.77;;;6.20;;
3427;SDS011;1727;42.624;23.406;2023-08-01T04:03:57;5.30;;;4.90;;
3427;SDS011;1727;42.624;23.406;2023-08-01T04:06:24;5.67;;;5.17;;
3427;SDS011;1727;42.624;23.406;2023-08-01T04:08:51;6.10;;;5.50;;
3427;SDS011;1727;42.624;23.406;2023-08-01T04:11:18;8.07;;;5.97;;
3427;SDS011;1727;42.624;23.406;2023-08-01T04:13:46;7.67;;;5.57;;
3427;SDS011;1727;42.624;23.406;2023-08-01T04:16:13;10.83;;;5.63;;
3427;SDS011;1727;42.624;23.406;2023-08-01T04:18:39;7.07;;;6.47;;
3427;SDS011;1727;42.624;23.406;2023-08-01T04:21:09;6.97;;;5.93;;
3427;SDS011;1727;42.624;23.406;2023-08-01T04:23:36;7.00;;;6.30;;
3427;SDS011;1727;42.624;23.406;2023-08-01T04:26:02;6.27;;;5.73;;
3427;SDS011;1727;42.624;23.406;2023-08-01T04:28:31;6.33;;;5.73;;
3427;SDS011;1727;42.624;23.406;2023-08-01T04:30:59;6.53;;;5.50;;
3427;SDS011;1727;42.624;23.406;2023-08-01T04:33:26;6.83;;;6.13;;
3427;SDS011;1727;42.624;23.406;2023-08-01T04:35:53;9.53;;;6.63;;
3427;SDS011;1727;42.624;23.406;2023-08-01T04:38:20;6.13;;;5.57;;
3427;SDS011;1727;42.624;23.406;2023-08-01T04:40:47;5.63;;;5.23;;
3427;SDS011;1727;42.624;23.406;2023-08-01T04:43:14;7.07;;;6.47;;
3427;SDS011;1727;42.624;23.406;2023-08-01T04:45:40;5.53;;;5.07;;
3427;SDS011;1727;42.624;23.406;2023-08-01T04:48:08;8.57;;;6.30;;
3427;SDS011;1727;42.624;23.406;2023-08-01T04:50:35;7.23;;;6.13;;
3427;SDS011;1727;42.624;23.406;2023-08-01T04:53:02;6.33;;;5.73;;
3427;SDS011;1727;42.624;23.406;2023-08-01T04:55:29;6.33;;;5.73;;
3427;SDS011;1727;42.624;23.406;2023-08-01T04:57:56;8.53;;;5.30;;
3427;SDS011;1727;42.624;23.406;2023-08-01T05:00:23;5.30;;;4.80;;
3427;SDS011;1727;42.624;23.406;2023-08-01T05:02:49;5.03;;;4.60;;
3427;SDS011;1727;42.624;23.406;2023-08-01T05:05:18;5.23;;;4.67;;
3427;SDS011;1727;42.624;23.406;2023-08-01T05:07:45;5.47;;;5.07;;
3427;SDS011;1727;42.624;23.406;2023-08-01T05:10:12;7.20;;;5.03;;
3427;SDS011;1727;42.624;23.406;2023-08-01T05:12:38;11.47;;;4.80;;
3427;SDS011;1727;42.624;23.406;2023-08-01T05:15:05;4.57;;;4.20;;
3427;SDS011;1727;42.624;23.406;2023-08-01T05:17:33;4.47;;;4.17;;
3427;SDS011;1727;42.624;23.406;2023-08-01T05:20:00;6.87;;;4.37;;
3427;SDS011;1727;42.624;23.406;2023-08-01T05:22:30;4.93;;;3.80;;
3427;SDS011;1727;42.624;23.406;2023-08-01T05:24:57;4.67;;;4.27;;
3427;SDS011;1727;42.624;23.406;2023-08-01T05:27:24;4.63;;;3.47;;
3427;SDS011;1727;42.624;23.406;2023-08-01T05:29:51;4.27;;;3.93;;
3427;SDS011;1727;42.624;23.406;2023-08-01T05:32:17;4.20;;;3.90;;
3427;SDS011;1727;42.624;23.406;2023-08-01T05:34:44;4.27;;;3.97;;
3427;SDS011;1727;42.624;23.406;2023-08-01T05:37:11;5.00;;;4.47;;
3427;SDS011;1727;42.624;23.406;2023-08-01T05:39:39;4.80;;;3.07;;
3427;SDS011;1727;42.624;23.406;2023-08-01T05:42:06;3.83;;;3.40;;
3427;SDS011;1727;42.624;23.406;2023-08-01T05:44:34;3.87;;;3.50;;
3427;SDS011;1727;42.624;23.406;2023-08-01T05:47:01;7.00;;;3.53;;
3427;SDS011;1727;42.624;23.406;2023-08-01T05:49:28;3.57;;;3.30;;
3427;SDS011;1727;42.624;23.406;2023-08-01T05:51:55;4.13;;;3.70;;
3427;SDS011;1727;42.624;23.406;2023-08-01T05:54:21;6.87;;;4.23;;
3427;SDS011;1727;42.624;23.406;2023-08-01T05:56:50;3.47;;;3.17;;
3427;SDS011;1727;42.624;23.406;2023-08-01T05:59:17;3.37;;;3.17;;
3427;SDS011;1727;42.624;23.406;2023-08-01T06:01:44;4.77;;;4.37;;
3427;SDS011;1727;42.624;23.406;2023-08-01T06:04:11;3.87;;;3.57;;
3427;SDS011;1727;42.624;23.406;2023-08-01T06:06:38;12.27;;;4.90;;
3427;SDS011;1727;42.624;23.406;2023-08-01T06:09:05;4.13;;;3.73;;
3427;SDS011;1727;42.624;23.406;2023-08-01T06:11:32;3.70;;;3.40;;
3427;SDS011;1727;42.624;23.406;2023-08-01T06:14:01;3.67;;;3.30;;
3427;SDS011;1727;42.624;23.406;2023-08-01T06:16:28;5.90;;;4.00;;
3427;SDS011;1727;42.624;23.406;2023-08-01T06:18:55;5.93;;;3.70;;
3427;SDS011;1727;42.624;23.406;2023-08-01T06:21:22;4.63;;;3.33;;
3427;SDS011;1727;42.624;23.406;2023-08-01T06:23:49;3.90;;;3.60;;
3427;SDS011;1727;42.624;23.406;2023-08-01T06:26:16;4.80;;;4.10;;
3427;SDS011;1727;42.624;23.406;2023-08-01T06:28:42;5.40;;;3.30;;
3427;SDS011;1727;42.624;23.406;2023-08-01T06:31:11;5.30;;;3.50;;
3427;SDS011;1727;42.624;23.406;2023-08-01T06:33:37;4.30;;;3.13;;
3427;SDS011;1727;42.624;23.406;2023-08-01T06:36:05;7.63;;;3.70;;
3427;SDS011;1727;42.624;23.406;2023-08-01T06:38:32;10.33;;;5.70;;
3427;SDS011;1727;42.624;23.406;2023-08-01T06:40:58;4.83;;;4.43;;
3427;SDS011;1727;42.624;23.406;2023-08-01T06:43:25;7.20;;;5.30;;
3427;SDS011;1727;42.624;23.406;2023-08-01T06:45:52;7.90;;;5.10;;
3427;SDS011;1727;42.624;23.406;2023-08-01T06:48:20;15.43;;;5.30;;
3427;SDS011;1727;42.624;23.406;2023-08-01T06:50:47;8.40;;;5.37;;
3427;SDS011;1727;42.624;23.406;2023-08-01T06:53:14;9.67;;;6.00;;
3427;SDS011;1727;42.624;23.406;2023-08-01T06:55:41;10.70;;;5.47;;
3427;SDS011;1727;42.624;23.406;2023-08-01T06:58:07;7.60;;;5.20;;
3427;SDS011;1727;42.624;23.406;2023-08-01T07:00:34;10.40;;;5.50;;
3427;SDS011;1727;42.624;23.406;2023-08-01T07:03:01;4.93;;;4.40;;
3427;SDS011;1727;42.624;23.406;2023-08-01T07:05:30;11.20;;;5.10;;
3427;SDS011;1727;42.624;23.406;2023-08-01T07:07:56;12.33;;;5.50;;
3427;SDS011;1727;42.624;23.406;2023-08-01T07:10:24;6.33;;;4.80;;
3427;SDS011;1727;42.624;23.406;2023-08-01T07:12:50;8.60;;;5.00;;
3427;SDS011;1727;42.624;23.406;2023-08-01T07:15:17;5.73;;;5.10;;
3427;SDS011;1727;42.624;23.406;2023-08-01T07:17:44;6.97;;;5.90;;
3427;SDS011;1727;42.624;23.406;2023-08-01T07:20:11;5.37;;;4.67;;
3427;SDS011;1727;42.624;23.406;2023-08-01T07:22:39;5.77;;;5.17;;
3427;SDS011;1727;42.624;23.406;2023-08-01T07:25:07;10.53;;;5.73;;
3427;SDS011;1727;42.624;23.406;2023-08-01T07:27:34;6.23;;;5.33;;
3427;SDS011;1727;42.624;23.406;2023-08-01T07:30:03;14.83;;;5.50;;
3427;SDS011;1727;42.624;23.406;2023-08-01T07:32:30;9.83;;;5.73;;
3427;SDS011;1727;42.624;23.406;2023-08-01T07:34:57;5.77;;;5.27;;
3427;SDS011;1727;42.624;23.406;2023-08-01T07:37:23;8.90;;;5.87;;
3427;SDS011;1727;42.624;23.406;2023-08-01T07:39:54;6.00;;;5.10;;
3427;SDS011;1727;42.624;23.406;2023-08-01T07:42:21;10.10;;;5.80;;
3427;SDS011;1727;42.624;23.406;2023-08-01T07:44:48;10.60;;;5.93;;
3427;SDS011;1727;42.624;23.406;2023-08-01T07:47:15;7.83;;;5.83;;
3427;SDS011;1727;42.624;23.406;2023-08-01T07:49:42;5.40;;;4.77;;
3427;SDS011;1727;42.624;23.406;2023-08-01T07:52:08;5.70;;;5.13;;
3427;SDS011;1727;42.624;23.406;2023-08-01T07:54:35;7.80;;;4.60;;
3427;SDS011;1727;42.624;23.406;2023-08-01T07:57:04;5.60;;;4.73;;
3427;SDS011;1727;42.624;23.406;2023-08-01T07:59:31;11.03;;;5.90;;
3427;SDS011;1727;42.624;23.406;2023-08-01T08:01:58;6.67;;;5.23;;
3427;SDS011;1727;42.624;23.406;2023-08-01T08:04:25;6.70;;;4.90;;
3427;SDS011;1727;42.624;23.406;2023-08-01T08:06:52;8.50;;;4.57;;
3427;SDS011;1727;42.624;23.406;2023-08-01T08:09:20;5.00;;;4.60;;
3427;SDS011;1727;42.624;23.406;2023-08-01T08:11:47;5.97;;;4.60;;
3427;SDS011;1727;42.624;23.406;2023-08-01T08:14:16;5.27;;;4.77;;
3427;SDS011;1727;42.624;23.406;2023-08-01T08:16:45;8.93;;;4.70;;
3427;SDS011;1727;42.624;23.406;2023-08-01T08:19:12;4.13;;;3.83;;
3427;SDS011;1727;42.624;23.406;2023-08-01T08:21:39;8.60;;;4.50;;
3427;SDS011;1727;42.624;23.406;2023-08-01T08:24:06;7.70;;;4.37;;
3427;SDS011;1727;42.624;23.406;2023-08-01T08:26:32;6.13;;;4.30;;
3427;SDS011;1727;42.624;23.406;2023-08-01T08:29:02;4.37;;;3.87;;
3427;SDS011;1727;42.624;23.406;2023-08-01T08:31:31;5.13;;;3.90;;
3427;SDS011;1727;42.624;23.406;2023-08-01T08:33:58;12.43;;;4.50;;
3427;SDS011;1727;42.624;23.406;2023-08-01T08:36:25;4.90;;;4.43;;
3427;SDS011;1727;42.624;23.406;2023-08-01T08:38:51;5.03;;;4.40;;
3427;SDS011;1727;42.624;23.406;2023-08-01T08:41:20;5.30;;;4.53;;
3427;SDS011;1727;42.624;23.406;2023-08-01T08:43:47;5.90;;;4.63;;
3427;SDS011;1727;42.624;23.406;2023-08-01T08:46:15;5.30;;;4.60;;
3427;SDS011;1727;42.624;23.406;2023-08-01T08:48:44;4.37;;;3.80;;
3427;SDS011;1727;42.624;23.406;2023-08-01T08:51:12;8.17;;;4.30;;
3427;SDS011;1727;42.624;23.406;2023-08-01T08:53:40;4.73;;;3.77;;
3427;SDS011;1727;42.624;23.406;2023-08-01T08:56:08;6.33;;;5.60;;
3427;SDS011;1727;42.624;23.406;2023-08-01T08:58:35;6.17;;;4.50;;
3427;SDS011;1727;42.624;23.406;2023-08-01T09:01:05;8.30;;;5.43;;
3427;SDS011;1727;42.624;23.406;2023-08-01T09:03:33;8.57;;;4.70;;
3427;SDS011;1727;42.624;23.406;2023-08-01T09:06:02;5.70;;;4.50;;
3427;SDS011;1727;42.624;23.406;2023-08-01T09:08:35;7.07;;;4.60;;
3427;SDS011;1727;42.624;23.406;2023-08-01T09:11:03;6.67;;;5.17;;
3427;SDS011;1727;42.624;23.406;2023-08-01T09:13:30;6.47;;;4.40;;
3427;SDS011;1727;42.624;23.406;2023-08-01T09:15:57;4.23;;;3.87;;
3427;SDS011;1727;42.624;23.406;2023-08-01T09:18:23;4.23;;;3.80;;
3427;SDS011;1727;42.624;23.406;2023-08-01T09:20:51;4.40;;;4.00;;
3427;SDS011;1727;42.624;23.406;2023-08-01T09:23:19;5.07;;;4.50;;
3427;SDS011;1727;42.624;23.406;2023-08-01T09:25:46;6.03;;;5.10;;
3427;SDS011;1727;42.624;23.406;2023-08-01T09:28:16;4.37;;;3.90;;
3427;SDS011;1727;42.624;23.406;2023-08-01T09:30:50;5.23;;;4.73;;
3427;SDS011;1727;42.624;23.406;2023-08-01T09:33:19;4.40;;;4.10;;
3427;SDS011;1727;42.624;23.406;2023-08-01T09:35:46;5.30;;;4.80;;
3427;SDS011;1727;42.624;23.406;2023-08-01T09:38:15;4.40;;;4.00;;
3427;SDS011;1727;42.624;23.406;2023-08-01T09:40:44;5.07;;;4.40;;
3427;SDS011;1727;42.624;23.406;2023-08-01T09:43:12;5.30;;;4.80;;
3427;SDS011;1727;42.624;23.406;2023-08-01T09:45:49;7.77;;;5.10;;
3427;SDS011;1727;42.624;23.406;2023-08-01T09:48:21;7.83;;;4.40;;
3427;SDS011;1727;42.624;23.406;2023-08-01T09:50:49;5.60;;;5.00;;
3427;SDS011;1727;42.624;23.406;2023-08-01T09:53:16;8.97;;;4.47;;
3427;SDS011;1727;42.624;23.406;2023-08-01T09:55:44;4.20;;;3.90;;
3427;SDS011;1727;42.624;23.406;2023-08-01T09:58:14;5.13;;;4.70;;
3427;SDS011;1727;42.624;23.406;2023-08-01T10:00:47;4.10;;;3.70;;
3427;SDS011;1727;42.624;23.406;2023-08-01T10:03:16;7.67;;;4.20;;
3427;SDS011;1727;42.624;23.406;2023-08-01T10:05:43;4.43;;;4.00;;
3427;SDS011;1727;42.624;23.406;2023-08-01T10:08:11;6.00;;;5.00;;
3427;SDS011;1727;42.624;23.406;2023-08-01T10:10:39;10.10;;;5.70;;
3427;SDS011;1727;42.624;23.406;2023-08-01T10:13:08;8.20;;;5.10;;
3427;SDS011;1727;42.624;23.406;2023-08-01T10:15:38;7.80;;;5.40;;
3427;SDS011;1727;42.624;23.406;2023-08-01T10:18:06;6.00;;;5.40;;
3427;SDS011;1727;42.624;23.406;2023-08-01T10:20:35;11.33;;;5.30;;
3427;SDS011;1727;42.624;23.406;2023-08-01T10:23:03;6.30;;;5.70;;
3427;SDS011;1727;42.624;23.406;2023-08-01T10:25:32;6.87;;;5.43;;
3427;SDS011;1727;42.624;23.406;2023-08-01T10:27:59;7.20;;;4.87;;
3427;SDS011;1727;42.624;23.406;2023-08-01T10:30:29;5.60;;;5.10;;
3427;SDS011;1727;42.624;23.406;2023-08-01T10:32:56;5.10;;;4.70;;
3427;SDS011;1727;42.624;23.406;2023-08-01T10:35:33;7.93;;;4.90;;
3427;SDS011;1727;42.624;23.406;2023-08-01T10:38:04;8.20;;;4.80;;
3427;SDS011;1727;42.624;23.406;2023-08-01T10:40:35;7.23;;;5.40;;
3427;SDS011;1727;42.624;23.406;2023-08-01T10:43:03;6.17;;;5.40;;
3427;SDS011;1727;42.624;23.406;2023-08-01T10:45:31;5.60;;;5.20;;
3427;SDS011;1727;42.624;23.406;2023-08-01T10:50:43;7.60;;;4.80;;
3427;SDS011;1727;42.624;23.406;2023-08-01T10:53:20;6.00;;;5.50;;
3427;SDS011;1727;42.624;23.406;2023-08-01T10:55:47;5.90;;;5.10;;
3427;SDS011;1727;42.624;23.406;2023-08-01T10:58:14;6.60;;;5.47;;
3427;SDS011;1727;42.624;23.406;2023-08-01T11:00:43;5.83;;;4.93;;
3427;SDS011;1727;42.624;23.406;2023-08-01T11:03:10;6.30;;;5.70;;
3427;SDS011;1727;42.624;23.406;2023-08-01T11:05:37;9.10;;;5.00;;
3427;SDS011;1727;42.624;23.406;2023-08-01T11:08:03;8.27;;;4.20;;
3427;SDS011;1727;42.624;23.406;2023-08-01T11:10:31;6.37;;;5.27;;
3427;SDS011;1727;42.624;23.406;2023-08-01T11:12:59;15.90;;;5.30;;
3427;SDS011;1727;42.624;23.406;2023-08-01T11:15:26;6.93;;;5.30;;
3427;SDS011;1727;42.624;23.406;2023-08-01T11:17:54;8.40;;;5.30;;
3427;SDS011;1727;42.624;23.406;2023-08-01T11:20:22;6.90;;;5.23;;
3427;SDS011;1727;42.624;23.406;2023-08-01T11:22:51;6.70;;;5.13;;
3427;SDS011;1727;42.624;23.406;2023-08-01T11:25:20;11.77;;;5.23;;
3427;SDS011;1727;42.624;23.406;2023-08-01T11:27:58;9.07;;;5.27;;
3427;SDS011;1727;42.624;23.406;2023-08-01T11:30:29;7.77;;;5.27;;
3427;SDS011;1727;42.624;23.406;2023-08-01T11:32:59;6.40;;;5.90;;
3427;SDS011;1727;42.624;23.406;2023-08-01T11:35:27;7.50;;;6.07;;
3427;SDS011;1727;42.624;23.406;2023-08-01T11:37:55;7.43;;;5.40;;
3427;SDS011;1727;42.624;23.406;2023-08-01T11:40:23;8.50;;;5.60;;
3427;SDS011;1727;42.624;23.406;2023-08-01T11:42:51;7.57;;;5.80;;
3427;SDS011;1727;42.624;23.406;2023-08-01T11:45:23;6.80;;;5.27;;
3427;SDS011;1727;42.624;23.406;2023-08-01T11:47:50;5.70;;;5.20;;
3427;SDS011;1727;42.624;23.406;2023-08-01T11:50:21;8.20;;;5.30;;
3427;SDS011;1727;42.624;23.406;2023-08-01T11:52:49;5.70;;;5.13;;
3427;SDS011;1727;42.624;23.406;2023-08-01T11:55:20;7.83;;;5.43;;
3427;SDS011;1727;42.624;23.406;2023-08-01T11:57:52;10.10;;;4.90;;
3427;SDS011;1727;42.624;23.406;2023-08-01T12:00:23;5.37;;;4.63;;
3427;SDS011;1727;42.624;23.406;2023-08-01T12:02:50;7.77;;;4.90;;
3427;SDS011;1727;42.624;23.406;2023-08-01T12:05:22;7.67;;;5.57;;
3427;SDS011;1727;42.624;23.406;2023-08-01T12:07:50;6.30;;;5.80;;
3427;SDS011;1727;42.624;23.406;2023-08-01T12:10:17;5.80;;;5.07;;
3427;SDS011;1727;42.624;23.406;2023-08-01T12:12:44;8.10;;;5.70;;
3427;SDS011;1727;42.624;23.406;2023-08-01T12:15:12;7.20;;;5.47;;
3427;SDS011;1727;42.624;23.406;2023-08-01T12:17:40;6.17;;;5.03;;
3427;SDS011;1727;42.624;23.406;2023-08-01T12:20:07;7.90;;;5.53;;
3427;SDS011;1727;42.624;23.406;2023-08-01T12:22:36;6.50;;;4.83;;
3427;SDS011;1727;42.624;23.406;2023-08-01T12:25:03;5.83;;;5.20;;
3427;SDS011;1727;42.624;23.406;2023-08-01T12:27:30;6.23;;;5.20;;
3427;SDS011;1727;42.624;23.406;2023-08-01T12:29:57;6.00;;;5.50;;
3427;SDS011;1727;42.624;23.406;2023-08-01T12:32:23;5.37;;;4.90;;
3427;SDS011;1727;42.624;23.406;2023-08-01T12:34:50;8.53;;;5.60;;
3427;SDS011;1727;42.624;23.406;2023-08-01T12:37:17;6.67;;;6.10;;
3427;SDS011;1727;42.624;23.406;2023-08-01T12:39:45;5.40;;;5.00;;
3427;SDS011;1727;42.624;23.406;2023-08-01T12:42:12;5.80;;;5.20;;
3427;SDS011;1727;42.624;23.406;2023-08-01T12:44:39;6.03;;;5.53;;
3427;SDS011;1727;42.624;23.406;2023-08-01T12:47:05;6.90;;;5.73;;
3427;SDS011;1727;42.624;23.406;2023-08-01T12:49:36;12.33;;;6.10;;
3427;SDS011;1727;42.624;23.406;2023-08-01T12:52:03;5.80;;;5.10;;
3427;SDS011;1727;42.624;23.406;2023-08-01T12:54:30;6.27;;;5.67;;
3427;SDS011;1727;42.624;23.406;2023-08-01T12:56:58;6.50;;;5.33;;
3427;SDS011;1727;42.624;23.406;2023-08-01T12:59:25;7.03;;;5.07;;
3427;SDS011;1727;42.624;23.406;2023-08-01T13:01:52;5.63;;;4.97;;
3427;SDS011;1727;42.624;23.406;2023-08-01T13:04:18;5.50;;;5.00;;
3427;SDS011;1727;42.624;23.406;2023-08-01T13:06:45;5.43;;;4.70;;
3427;SDS011;1727;42.624;23.406;2023-08-01T13:09:12;5.10;;;4.13;;
3427;SDS011;1727;42.624;23.406;2023-08-01T13:11:39;4.80;;;4.50;;
3427;SDS011;1727;42.624;23.406;2023-08-01T13:14:09;5.50;;;5.00;;
3427;SDS011;1727;42.624;23.406;2023-08-01T13:16:36;4.73;;;4.43;;
3427;SDS011;1727;42.624;23.406;2023-08-01T13:19:03;5.40;;;5.00;;
3427;SDS011;1727;42.624;23.406;2023-08-01T13:21:31;9.23;;;4.90;;
3427;SDS011;1727;42.624;23.406;2023-08-01T13:23:59;6.23;;;5.27;;
3427;SDS011;1727;42.624;23.406;2023-08-01T13:26:29;6.10;;;5.10;;
3427;SDS011;1727;42.624;23.406;2023-08-01T13:28:56;6.53;;;5.40;;
3427;SDS011;1727;42.624;23.406;2023-08-01T13:31:25;12.47;;;5.20;;
3427;SDS011;1727;42.624;23.406;2023-08-01T13:33:53;5.83;;;5.17;;
3427;SDS011;1727;42.624;23.406;2023-08-01T13:36:19;8.90;;;5.07;;
3427;SDS011;1727;42.624;23.406;2023-08-01T13:38:47;6.33;;;5.47;;
3427;SDS011;1727;42.624;23.406;2023-08-01T13:41:13;9.07;;;5.07;;
3427;SDS011;1727;42.624;23.406;2023-08-01T13:43:40;16.13;;;5.43;;
3427;SDS011;1727;42.624;23.406;2023-08-01T13:46:09;6.70;;;5.40;;
3427;SDS011;1727;42.624;23.406;2023-08-01T13:48:39;5.50;;;5.00;;
3427;SDS011;1727;42.624;23.406;2023-08-01T13:51:06;7.57;;;5.77;;
3427;SDS011;1727;42.624;23.406;2023-08-01T13:53:33;5.40;;;5.00;;
3427;SDS011;1727;42.624;23.406;2023-08-01T13:56:04;8.63;;;5.37;;
3427;SDS011;1727;42.624;23.406;2023-08-01T13:58:31;4.57;;;4.17;;
3427;SDS011;1727;42.624;23.406;2023-08-01T14:01:01;4.87;;;4.43;;
3427;SDS011;1727;42.624;23.406;2023-08-01T14:03:28;5.20;;;4.53;;
3427;SDS011;1727;42.624;23.406;2023-08-01T14:05:56;4.77;;;4.07;;
3427;SDS011;1727;42.624;23.406;2023-08-01T14:08:29;5.93;;;5.00;;
3427;SDS011;1727;42.624;23.406;2023-08-01T14:10:55;4.07;;;3.50;;
3427;SDS011;1727;42.624;23.406;2023-08-01T14:13:22;12.23;;;4.80;;
3427;SDS011;1727;42.624;23.406;2023-08-01T14:15:49;4.80;;;4.40;;
3427;SDS011;1727;42.624;23.406;2023-08-01T14:18:16;5.13;;;4.67;;
3427;SDS011;1727;42.624;23.406;2023-08-01T14:20:43;5.93;;;4.37;;
3427;SDS011;1727;42.624;23.406;2023-08-01T14:23:11;4.50;;;4.20;;
3427;SDS011;1727;42.624;23.406;2023-08-01T14:25:38;4.97;;;4.57;;
3427;SDS011;1727;42.624;23.406;2023-08-01T14:28:05;5.23;;;4.70;;
3427;SDS011;1727;42.624;23.406;2023-08-01T14:30:32;5.73;;;5.20;;
3427;SDS011;1727;42.624;23.406;2023-08-01T14:32:59;6.10;;;4.57;;
3427;SDS011;1727;42.624;23.406;2023-08-01T14:35:26;6.40;;;4.80;;
3427;SDS011;1727;42.624;23.406;2023-08-01T14:37:53;5.93;;;3.67;;
3427;SDS011;1727;42.624;23.406;2023-08-01T14:40:22;5.87;;;3.77;;
3427;SDS011;1727;42.624;23.406;2023-08-01T14:42:49;5.43;;;4.50;;
3427;SDS011;1727;42.624;23.406;2023-08-01T14:45:16;8.37;;;4.10;;
3427;SDS011;1727;42.624;23.406;2023-08-01T14:47:43;6.70;;;4.30;;
3427;SDS011;1727;42.624;23.406;2023-08-01T14:50:11;4.40;;;4.10;;
3427;SDS011;1727;42.624;23.406;2023-08-01T14:52:39;4.57;;;4.27;;
3427;SDS011;1727;42.624;23.406;2023-08-01T14:55:07;4.90;;;4.50;;
3427;SDS011;1727;42.624;23.406;2023-08-01T14:57:36;4.20;;;3.80;;
3427;SDS011;1727;42.624;23.406;2023-08-01T15:00:03;7.43;;;4.53;;
3427;SDS011;1727;42.624;23.406;2023-08-01T15:02:31;6.30;;;4.90;;
3427;SDS011;1727;42.624;23.406;2023-08-01T15:04:58;6.90;;;4.73;;